Flight Track Log - Related Links

Times and Time Zones

All times are in EST time to prevent confusion due to time zone crossing. See the N143DE flight status page for this flight to view local times or setup timezone preferences in your user account.

Time Position Orientation Groundspeed Altitude Reporting Facility
EST Latitude Longitude Course Direction KTS MPH feet Rate Location/Type
Sun 07:42:25 AM 34.0000 -84.6333 203° Southwest 152 175 2,800  Level Atlanta TRACON
Sun 07:43:25 AM 33.9667 -84.6500 203° Southwest 177 204 5,000 1,200 Climbing Atlanta TRACON
Sun 07:44:25 AM 33.9333 -84.5833 121° Southeast 249 287 5,200  Climbing Atlanta TRACON
Sun 07:45:25 AM 33.8833 -84.5167 132° Southeast 260 299 5,000 50 Descending Atlanta TRACON
Sun 07:46:25 AM 33.8500 -84.4333 116° Southeast 256 295 5,300 476 Climbing Atlanta TRACON
Sun 07:47:31 AM 33.7833 -84.4000 157° South 236 272 6,000 333 Climbing Atlanta TRACON
Sun 07:48:31 AM 33.7167 -84.3833 168° South 229 264 6,000 50 Level Atlanta TRACON
Sun 07:49:31 AM 33.6500 -84.3833 180° South 221 254 6,100 50 Climbing Atlanta TRACON
Sun 07:50:31 AM 33.6000 -84.3833 180° South 232 267 6,100  Level Atlanta TRACON
Sun 07:51:31 AM 33.5333 -84.4000 192° South 223 257 6,100  Level Atlanta TRACON
Sun 07:52:31 AM 33.4667 -84.4000 180° South 222 255 6,100 450 Level Atlanta TRACON
Sun 07:53:31 AM 33.4167 -84.4000 180° South 218 251 7,000 1,469 Climbing Atlanta TRACON
Sun 07:54:54 AM 33.3408 -84.3497 151° Southeast 217 250 9,600 1,678 Climbing Atlanta Center
Sun 07:55:54 AM 33.2908 -84.3122 148° Southeast 211 243 11,000 1,350 Climbing Atlanta Center
Sun 07:56:54 AM 33.2367 -84.2722 161° South 225 259 12,300 1,600 Climbing Atlanta Center
Sun 07:57:54 AM 33.1825 -84.2375 152° Southeast 225 259 14,200 1,650 Climbing Atlanta Center
Sun 07:58:54 AM 33.1325 -84.2175 161° South 215 247 15,600 1,450 Climbing Atlanta Center
Sun 07:59:54 AM 33.0783 -84.1975 163° South 210 242 17,100 1,350 Climbing Atlanta Center
Sun 08:00:54 AM 33.0219 -84.1700 158° South 210 242 18,300 1,300 Climbing Atlanta Center
Sun 08:01:54 AM 32.9675 -84.1528 165° South 210 242 19,700 1,250 Climbing Atlanta Center
Sun 08:02:54 AM 32.9092 -84.1378 168° South 205 236 20,800 1,100 Climbing Atlanta Center
Sun 08:03:54 AM 32.8550 -84.1156 161° South 205 236 21,900 1,050 Climbing Atlanta Center
Sun 08:04:54 AM 32.7986 -84.0981 165° South 205 236 22,900 950 Climbing Atlanta Center
Sun 08:05:54 AM 32.7444 -84.0733 159° South 205 236 23,800 850 Climbing Atlanta Center
Sun 08:06:54 AM 32.6881 -84.0511 162° South 205 236 24,600 600 Climbing Atlanta Center
Sun 08:07:54 AM 32.6294 -84.0242 159° South 210 242 25,000 250 Climbing Atlanta Center
Sun 08:08:54 AM 32.5647 -83.9969 160° South 231 266 25,100  Climbing Atlanta Center
Sun 08:09:54 AM 32.4981 -83.9725 163° South 242 278 25,000  Descending Atlanta Center
Sun 08:10:54 AM 32.4292 -83.9453 162° South 253 291 25,100  Climbing Atlanta Center
Sun 08:11:54 AM 32.3581 -83.9158 161° South 258 297 25,000 -50 Descending Atlanta Center
Sun 08:12:54 AM 32.2914 -83.8867 160° South 264 304 25,000  Level Atlanta Center
Sun 08:14:53 AM 32.1525 -83.8300 161° South 269 310 25,000  Level Jacksonville Center
Sun 08:15:53 AM 32.0839 -83.8022 161° South 269 310 25,000  Level Jacksonville Center
Sun 08:16:53 AM 32.0172 -83.7747 161° South 264 304 25,000  Level Jacksonville Center
Sun 08:17:53 AM 31.9486 -83.7422 158° South 264 304 25,000  Level Jacksonville Center
Sun 08:18:53 AM 31.8778 -83.7047 156° South 264 304 25,000  Level Jacksonville Center
Sun 08:19:53 AM 31.8072 -83.6725 159° South 264 304 25,000  Level Jacksonville Center
Sun 08:20:53 AM 31.7406 -83.6378 156° South 264 304 25,000  Level Jacksonville Center
Sun 08:21:53 AM 31.6717 -83.6078 160° South 269 310 25,000  Level Jacksonville Center
Sun 08:22:53 AM 31.6008 -83.5806 162° South 269 310 25,000  Level Jacksonville Center
Sun 08:23:53 AM 31.5322 -83.5483 158° South 269 310 25,000  Level Jacksonville Center
Sun 08:24:53 AM 31.4656 -83.5186 159° South 264 304 25,000  Level Jacksonville Center
Sun 08:25:53 AM 31.3989 -83.4864 158° South 264 304 25,000  Level Jacksonville Center
Sun 08:26:53 AM 31.3300 -83.4544 158° South 264 304 25,000  Level Jacksonville Center
Sun 08:27:53 AM 31.2614 -83.4225 158° South 264 304 25,000  Level Jacksonville Center
Sun 08:28:53 AM 31.1925 -83.3928 160° South 264 304 25,000  Level Jacksonville Center
Sun 08:29:53 AM 31.1281 -83.3611 157° South 264 304 25,000  Level Jacksonville Center
Sun 08:30:53 AM 31.0572 -83.3292 159° South 264 304 25,000  Level Jacksonville Center
Sun 08:31:53 AM 31.0050 -83.3047 158° South 264 304 25,000  Level Jacksonville Center
Sun 08:32:53 AM 30.9300 -83.2703 158° South 264 304 25,000  Level Jacksonville Center
Sun 08:33:53 AM 30.8631 -83.2411 159° South 264 304 25,000  Level Jacksonville Center
Sun 08:34:53 AM 30.7881 -83.2044 157° South 264 304 25,000  Level Jacksonville Center
Sun 08:35:53 AM 30.7214 -83.1728 158° South 264 304 25,000  Level Jacksonville Center
Sun 08:36:53 AM 30.6525 -83.1436 160° South 264 304 25,000  Level Jacksonville Center
Sun 08:37:53 AM 30.5858 -83.1122 158° South 264 304 25,000  Level Jacksonville Center
Sun 08:38:53 AM 30.5189 -83.0831 159° South 264 304 25,000  Level Jacksonville Center
Sun 08:39:53 AM 30.4481 -83.0492 158° South 264 304 25,000  Level Jacksonville Center
Sun 08:40:53 AM 30.3833 -83.0225 160° South 264 304 25,000  Level Jacksonville Center
Sun 08:41:53 AM 30.3144 -82.9911 159° South 264 304 25,000  Level Jacksonville Center
Sun 08:42:53 AM 30.2478 -82.9600 158° South 264 304 25,000  Level Jacksonville Center
Sun 08:43:53 AM 30.1808 -82.9311 160° South 264 304 25,000  Level Jacksonville Center
Sun 08:44:53 AM 30.1119 -82.8972 157° South 264 304 25,000  Level Jacksonville Center
Sun 08:45:53 AM 30.0431 -82.8686 160° South 264 304 25,000  Level Jacksonville Center
Sun 08:46:53 AM 29.9825 -82.8422 159° South 264 304 25,000  Level Jacksonville Center
Sun 08:47:53 AM 29.9158 -82.8136 160° South 264 304 25,000  Level Jacksonville Center
Sun 08:48:53 AM 29.8489 -82.7825 158° South 264 304 25,000  Level Jacksonville Center
Sun 08:49:53 AM 29.7800 -82.7514 159° South 264 304 25,000  Level Jacksonville Center
Sun 08:50:53 AM 29.7111 -82.7228 160° South 264 304 25,000  Level Jacksonville Center
Sun 08:51:53 AM 29.6464 -82.6919 158° South 264 304 25,000  Level Jacksonville Center
Sun 08:52:53 AM 29.5772 -82.6608 159° South 264 304 25,000  Level Jacksonville Center
Sun 08:53:53 AM 29.5064 -82.6300 159° South 269 310 25,000  Level Jacksonville Center
Sun 08:54:53 AM 29.4372 -82.5992 159° South 269 310 25,000  Level Jacksonville Center
Sun 08:55:53 AM 29.3706 -82.5683 158° South 263 303 25,000  Level Jacksonville Center
Sun 08:56:53 AM 29.3014 -82.5378 159° South 263 303 25,000  Level Jacksonville Center
Sun 08:57:53 AM 29.2325 -82.5094 160° South 268 308 25,000  Level Jacksonville Center
Sun 08:58:53 AM 29.1636 -82.4789 159° South 268 308 25,000  Level Jacksonville Center
Sun 08:59:53 AM 29.0947 -82.4553 163° South 268 308 25,000  Level Jacksonville Center
Sun 09:00:53 AM 29.0278 -82.4603 184° South 253 291 25,000  Level Jacksonville Center
Sun 09:01:53 AM 28.9631 -82.4653 184° South 248 285 25,000  Level Jacksonville Center
Sun 09:02:53 AM 28.8942 -82.4681 182° South 248 285 25,000  Level Jacksonville Center
Sun 09:03:53 AM 28.8275 -82.4708 182° South 248 285 25,000  Level Jacksonville Center
Sun 09:04:53 AM 28.7608 -82.4758 184° South 248 285 25,000  Level Jacksonville Center
Sun 09:05:53 AM 28.6919 -82.4783 182° South 248 285 25,000  Level Jacksonville Center
Sun 09:06:53 AM 28.6250 -82.4811 182° South 248 285 25,000  Level Jacksonville Center
Sun 09:07:53 AM 28.5583 -82.4861 184° South 248 285 25,000  Level Jacksonville Center
Sun 09:08:53 AM 28.4914 -82.4886 182° South 248 285 25,000  Level Jacksonville Center
Sun 09:09:53 AM 28.4228 -82.4914 182° South 248 285 25,000  Level Jacksonville Center
Sun 09:11:53 AM 28.2839 -82.4975 182° South 249 287 25,000  Level Miami Center
Sun 09:12:53 AM 28.2169 -82.5014 183° South 255 293 25,000  Level Miami Center
Sun 09:13:53 AM 28.1500 -82.5025 181° South 249 287 25,000  Level Miami Center
Sun 09:14:53 AM 28.0811 -82.5061 183° South 249 287 25,000  Level Miami Center
Sun 09:15:53 AM 28.0164 -82.5100 183° South 251 289 25,000  Level Miami Center
Sun 09:16:53 AM 27.9453 -82.5111 181° South 251 289 25,000  Level Miami Center
Sun 09:17:53 AM 27.8756 -82.4842 161° South 251 289 25,000  Level Miami Center
Sun 09:18:53 AM 27.8056 -82.4572 161° South 256 295 25,000  Level Miami Center
Sun 09:19:53 AM 27.7439 -82.4333 161° South 251 289 25,000  Level Miami Center
Sun 09:20:53 AM 27.6761 -82.4089 162° South 251 289 25,000  Level Miami Center
Sun 09:21:53 AM 27.5997 -82.3817 162° South 256 295 25,000  Level Miami Center
Sun 09:22:53 AM 27.5297 -82.3572 163° South 263 303 25,000  Level Miami Center
Sun 09:23:53 AM 27.4619 -82.3306 161° South 263 303 25,000  Level Miami Center
Sun 09:24:53 AM 27.4003 -82.3089 163° South 258 297 25,000  Level Miami Center
Sun 09:25:53 AM 27.3239 -82.2819 163° South 263 303 25,000  Level Miami Center
Sun 09:26:53 AM 27.2603 -82.2581 162° South 257 296 25,000  Level Miami Center
Sun 09:27:53 AM 27.1903 -82.2314 161° South 257 296 25,000  Level Miami Center
Sun 09:28:53 AM 27.1306 -82.2075 160° South 255 293 25,000  Level Miami Center
Sun 09:29:53 AM 27.0625 -82.1836 163° South 255 293 25,000  Level Miami Center
Sun 09:30:53 AM 26.9864 -82.1592 164° South 261 300 25,000  Level Miami Center
Sun 09:31:53 AM 26.9286 -82.1356 160° South 261 300 25,000  Level Miami Center
Sun 09:32:53 AM 26.8608 -82.1114 162° South 261 300 25,000 -200 Level Miami Center
Sun 09:33:53 AM 26.7906 -82.0875 163° South 261 300 24,600 -800 Descending Miami Center
Sun 09:34:53 AM 26.7167 -82.0539 158° South 267 307 23,400 -1,000 Descending Miami Center
Sun 09:35:53 AM 26.6567 -81.9792 132° Southeast 280 322 22,600 -950 Descending Miami Center
Sun 09:36:53 AM 26.6414 -81.8808 100° East 282 325 21,500 -1,050 Descending Miami Center
Sun 09:37:53 AM 26.5919 -81.7975 124° Southeast 302 348 20,500 -1,000 Descending Miami Center
Sun 09:38:53 AM 26.5406 -81.7164 125° Southeast 312 359 19,500 -1,250 Descending Miami Center
Sun 09:39:53 AM 26.4847 -81.6308 126° Southeast 312 359 18,000 -1,600 Descending Miami Center
Sun 09:40:53 AM 26.4392 -81.5592 125° Southeast 300 345 16,300 -1,700 Descending Miami Center
Sun 09:41:53 AM 26.3936 -81.4856 125° Southeast 295 339 14,600 -1,650 Descending Miami Center
Sun 09:42:53 AM 26.3478 -81.4144 126° Southeast 290 334 13,000 -1,600 Descending Miami Center
Sun 09:43:53 AM 26.3019 -81.3431 126° Southeast 290 334 11,400 -1,150 Descending Miami Center
Sun 09:44:53 AM 26.2664 -81.2700 118° Southeast 280 322 10,700 -1,050 Descending Miami Center
Sun 09:45:53 AM 26.2269 -81.1989 122° Southeast 275 316 9,300 -1,450 Descending Miami Center
Sun 09:46:53 AM 26.1872 -81.1236 120° Southeast 275 316 7,800 -1,385 Descending Miami Center
Sun 09:47:11 AM 26.1753 -81.1044 125° Southeast 280 322 7,500 -1,400 Descending Miami Center
Sun 09:47:53 AM 26.1497 -81.0503 118° Southeast 275 316 6,400 -1,047 Descending Miami Center
Sun 09:48:37 AM 26.1178 -80.9983 124° Southeast 262 302 6,000 -500 Descending Miami Center
Sun 09:48:53 AM 26.1161 -80.9844 98° East 275 316 5,900 -873 Descending Miami Center
Sun 09:49:32 AM 26.0903 -80.9350 120° Southeast 251 289 5,200 -900 Descending Miami Center
Sun 09:49:53 AM 26.0847 -80.9164 108° East 265 305 5,000 -179 Descending Miami Center
Sun 09:50:39 AM 26.0653 -80.8578 110° East 239 275 5,000 -200 Level Miami Center
Sun 09:50:53 AM 26.0656 -80.8486 88° East 241 277 4,800 -885 Descending Miami Center
Sun 09:51:40 AM 26.0400 -80.7878 115° Southeast 239 275 4,100 -800 Descending Miami Center
Sun 09:51:53 AM 26.0403 -80.7783 88° East 236 272 4,000 -91 Descending Miami Center
Sun 09:52:46 AM 26.0150 -80.7128 113° Southeast 230 265 4,000 -100 Level Miami Center
Sun 09:52:53 AM 26.0192 -80.7108 23° Northeast 236 272 3,900 -480 Descending Miami Center
Sun 09:53:36 AM 26.0103 -80.6572 100° East 234 269 3,600 -500 Descending Miami Center
Sun 09:53:53 AM 26.0106 -80.6411 89° East 231 266 3,400 -545 Descending Miami Center
Sun 09:54:42 AM 26.0017 -80.5761 99° East 236 272 3,000 -400 Descending Miami Center
Sun 09:54:53 AM 26.0039 -80.5717 61° Northeast 226 260 3,000 -197 Level Miami Center
Sun 09:55:43 AM 25.9972 -80.5067 96° East 218 251 2,800 -300 Descending Miami Center
Sun 09:55:53 AM 25.9975 -80.5019 86° East 221 254 2,700 -627 Descending Miami Center
Sun 09:56:50 AM 25.9742 -80.4297 110° East 241 277 2,100 -700 Descending Miami Center
Sun 09:56:53 AM 25.9761 -80.4344 295° West 221 254 2,000 120 Descending Miami Center
Sun 09:57:40 AM 25.9586 -80.3806 110° East 191 220 2,200 -505 Climbing Miami Center
Sun 09:58:40 AM 25.9344 -80.3383 122° Southeast 150 173 1,100 -879 Descending Miami Center
Sun 09:59:36 AM 25.9186 -80.3081 120° Southeast 123 142 500 -643 Descending Miami Center
Sun 10:01:00 AM 25.9074 -80.2782 204° Southwest  Level Estimated
Sun 10:08:00 AM 25.9074 -80.2782 204° Southwest  Level Estimated

Login

Don't have an account? Register now (free) for customized features, flight alerts, and more!